Hlavní strana
METAR-TAF:

METAR-TAF

Letiště :

Adrar, Alžírsko

zeměpisná šířka: 27-53N, zeměpisná délka: 000-17W, výška: 263 m

Aktuální stav počasí

Zpráva byla vytvořena před 54 minutami, v 05:00 UTC
Východoseverovýchodní vítr 5 kt
Teplota 9°C
Vlhkost vzduchu 46%
Tlak 1021 hPa
Viditelnost 10 km a více
Žádná oblačnost pod 1500 m, nevyskytují se cumulonimby.

METAR: DAUA 250500Z 06005KT CAVOK 09/M02 Q1021

Čas: 06:54 (05:54 UTC)

Předpověď počasí

Zpráva byla vytvořena před 54 minutami, v 05:00 UTC
Předpověď platná od 25 v 06 UTC do 26 v 06 UTC
Východoseverovýchodní vítr 6 kt
Viditelnost 10 km a více
Žádná oblačnost pod 1500 m, nevyskytují se cumulonimby.
Změna
od 25 v 08 UTC do 25 v 10 UTC
Jihovýchodní vítr 10 kt
Pravděpodobnost 30%
od 25 v 12 UTC do 25 v 16 UTC
Jižní vítr 20 kt
Viditelnost: 5000 m
nízko zvířený písek

TAF: DAUA 250500Z 2506/2606 06006KT CAVOK BECMG 2508/2510 14010KT PROB30 2512/2516 18020KT 5000 DRSA

Stav a předpovědi počasí z více než 4 000 letišť (zprávy METAR a TAF).

Červené a žluté tečky na mapě představují dostupné meteorologické stanice.

Když kurzor umístíte na tečku, zobrazí se název stanice.

Pak kliknutím zobrazíte stav a předpověď počasí.

Chcete-li změnit mapu, kliknutím na zelené tlačítko se znaménkem +mapu přiblížíte, kliknutím na zelené tlačítko se znaménkem – mapu oddálíte a kliknutím na zelené šipky přejdete na sousední mapy.


METAR-TAF: